Time;durP1;ratioP1;P1;durP2;ratioP2;P2;SDS_P1;SDS_P2;PMS_P1;PMS_P2;Temp;Humidity;BMP_temperature;BMP_pressure;BME280_temperature;BME280_humidity;BME280_pressure;Samples;Min_cycle;Max_cycle;Signal;HPM_P1;HPM_P2
2023/04/18 00:00:43;;;;;;;;;;;;;;;6.99;100.00;96759.09;5044067;28;19956;-73
2023/04/18 00:03:08;;;;;;;;;;;;;;;7.10;100.00;96762.13;5022696;28;19916;-74
2023/04/18 00:05:35;;;;;;;;;;;;;;;6.95;100.00;96755.44;5044093;28;19971;-73
2023/04/18 00:08:01;;;;;;;;;;;;;;;6.91;100.00;96762.69;5044560;28;19917;-74
2023/04/18 00:10:26;;;;;;;;;;;;;;;6.87;100.00;96766.09;5022761;28;20035;-73
2023/04/18 00:12:51;;;;;;;;;;;;;;;6.87;100.00;96765.31;5044356;28;20270;-73
2023/04/18 00:15:17;;;;;;;;;;;;;;;6.83;100.00;96754.31;5021383;28;19939;-73
2023/04/18 00:17:42;;;;;;;;;;;;;;;6.89;100.00;96752.16;5043052;28;19917;-74
2023/04/18 00:20:11;;;;;;;;;;;;;;;6.88;100.00;96739.69;5020137;28;19921;-73
2023/04/18 00:22:41;;;;;;;;;;;;;;;6.83;100.00;96748.06;5043925;28;19921;-73
2023/04/18 00:25:07;;;;;;;;;;;;;;;6.82;100.00;96749.97;5039210;28;19921;-73
2023/04/18 00:27:32;;;;;;;;;;;;;;;6.82;100.00;96747.25;5043902;28;19970;-74
2023/04/18 00:29:57;;;;;;;;;;;;;;;6.83;100.00;96745.34;5043264;28;19969;-73
2023/04/18 00:32:22;;;;;;;;;;;;;;;6.83;100.00;96740.69;5020715;28;20368;-73
2023/04/18 00:34:48;;;;;;;;;;;;;;;6.94;100.00;96734.81;5041507;28;19920;-73
2023/04/18 00:37:13;;;;;;;;;;;;;;;6.90;100.00;96737.41;5038752;28;20426;-73
2023/04/18 00:39:39;;;;;;;;;;;;;;;6.93;100.00;96739.44;5043368;28;19917;-73
2023/04/18 00:42:04;;;;;;;;;;;;;;;6.94;100.00;96743.75;5042827;28;19923;-70
2023/04/18 00:44:30;;;;;;;;;;;;;;;6.96;100.00;96748.88;5046106;28;20011;-72
2023/04/18 00:46:56;;;;;;;;;;;;;;;7.02;100.00;96744.75;5042088;28;19932;-72
2023/04/18 00:49:22;;;;;;;;;;;;;;;7.06;100.00;96742.97;5041054;28;21151;-71
2023/04/18 00:51:47;;;;;;;;;;;;;;;7.05;100.00;96747.59;5043670;28;19932;-71
2023/04/18 00:54:15;;;;;;;;;;;;;;;7.07;100.00;96748.03;5038477;28;19960;-73
2023/04/18 00:56:41;;;;;;;;;;;;;;;7.15;100.00;96745.53;5042970;28;19979;-72
2023/04/18 00:59:08;;;;;;;;;;;;;;;7.13;100.00;96745.09;5038237;28;20377;-72
2023/04/18 01:01:33;;;;;;;;;;;;;;;7.23;100.00;96739.97;5044490;28;19975;-73
2023/04/18 01:03:58;;;;;;;;;;;;;;;7.22;100.00;96737.56;5043962;28;19962;-73
2023/04/18 01:06:24;;;;;;;;;;;;;;;7.25;100.00;96745.84;5038044;28;19921;-72
2023/04/18 01:08:50;;;;;;;;;;;;;;;7.12;100.00;96735.34;5044548;28;19992;-73
2023/04/18 01:11:15;;;;;;;;;;;;;;;7.21;100.00;96736.78;5051101;28;19928;-73
2023/04/18 01:13:40;;;;;;;;;;;;;;;7.14;100.00;96731.13;5056725;28;19921;-72
2023/04/18 01:16:06;;;;;;;;;;;;;;;7.21;100.00;96731.34;5047399;28;20027;-72
2023/04/18 01:18:33;;;;;;;;;;;;;;;7.23;100.00;96739.19;5047368;28;19917;-73
2023/04/18 01:20:59;;;;;;;;;;;;;;;7.17;100.00;96730.44;5042226;28;19917;-72
2023/04/18 01:23:25;;;;;;;;;;;;;;;7.17;100.00;96732.38;5037470;28;20392;-72
2023/04/18 01:25:50;;;;;;;;;;;;;;;7.17;100.00;96725.00;5042438;28;19941;-74
2023/04/18 01:28:17;;;;;;;;;;;;;;;7.17;100.00;96724.22;5037566;28;19923;-73
2023/04/18 01:30:42;;;;;;;;;;;;;;;7.18;100.00;96720.34;5041087;28;19956;-72
2023/04/18 01:33:07;;;;;;;;;;;;;;;7.13;100.00;96718.66;5037257;28;19952;-74
2023/04/18 01:35:33;;;;;;;;;;;;;;;7.15;100.00;96718.28;5041873;28;20297;-71
2023/04/18 01:37:59;;;;;;;;;;;;;;;7.24;100.00;96708.88;5044628;28;19917;-72
2023/04/18 01:40:24;;;;;;;;;;;;;;;7.23;100.00;96707.28;5056357;28;20494;-72
2023/04/18 01:42:49;;;;;;;;;;;;;;;7.24;100.00;96714.31;5048818;28;19926;-72
2023/04/18 01:45:15;;;;;;;;;;;;;;;7.18;100.00;96710.22;5037328;28;19921;-72
2023/04/18 01:47:40;;;;;;;;;;;;;;;7.25;100.00;96705.00;5042669;28;19924;-72
2023/04/18 01:50:06;;;;;;;;;;;;;;;7.27;100.00;96700.00;5036826;28;20369;-71
2023/04/18 01:52:31;;;;;;;;;;;;;;;7.27;100.00;96700.00;5041173;28;19943;-71
2023/04/18 01:54:56;;;;;;;;;;;;;;;7.26;100.00;96697.63;5041432;28;19917;-72
2023/04/18 01:57:22;;;;;;;;;;;;;;;7.27;100.00;96693.75;5036036;28;20653;-71
2023/04/18 01:59:47;;;;;;;;;;;;;;;7.30;100.00;96700.47;5023935;28;19920;-72
2023/04/18 02:02:12;;;;;;;;;;;;;;;7.31;100.00;96702.03;5019069;28;19932;-71
2023/04/18 02:04:38;;;;;;;;;;;;;;;7.35;100.00;96701.00;5042260;28;19925;-71
2023/04/18 02:07:03;;;;;;;;;;;;;;;7.32;100.00;96695.47;5040255;28;19944;-73
2023/04/18 02:09:29;;;;;;;;;;;;;;;7.35;100.00;96692.84;5040523;28;19921;-72
2023/04/18 02:11:58;;;;;;;;;;;;;;;7.33;100.00;96691.56;5040405;28;19917;-73
2023/04/18 02:14:23;;;;;;;;;;;;;;;7.49;100.00;96697.09;5038051;28;19913;-73
2023/04/18 02:16:48;;;;;;;;;;;;;;;7.48;100.00;96699.03;5042921;28;19931;-73
2023/04/18 02:19:13;;;;;;;;;;;;;;;7.50;100.00;96702.19;5037347;28;20393;-73
2023/04/18 02:21:40;;;;;;;;;;;;;;;7.62;100.00;96706.81;5042933;28;19921;-73
2023/04/18 02:24:06;;;;;;;;;;;;;;;7.51;100.00;96689.34;5037827;28;19917;-74
2023/04/18 02:26:31;;;;;;;;;;;;;;;7.43;100.00;96696.56;5042007;28;19928;-73
2023/04/18 02:28:57;;;;;;;;;;;;;;;7.57;100.00;96691.50;5042915;28;19928;-73
2023/04/18 02:31:22;;;;;;;;;;;;;;;7.64;100.00;96694.41;5019470;28;20708;-73
2023/04/18 02:33:48;;;;;;;;;;;;;;;7.56;100.00;96698.09;5040567;28;20014;-73
2023/04/18 02:36:13;;;;;;;;;;;;;;;7.43;100.00;96693.81;5038872;28;19917;-72
2023/04/18 02:38:38;;;;;;;;;;;;;;;7.40;100.00;96689.88;5042791;28;19917;-72
2023/04/18 02:41:03;;;;;;;;;;;;;;;7.36;100.00;96688.16;5039268;28;20008;-73
2023/04/18 02:43:29;;;;;;;;;;;;;;;7.38;100.00;96686.69;5041845;28;19917;-72
2023/04/18 02:45:54;;;;;;;;;;;;;;;7.24;100.00;96692.53;5041573;28;19921;-72
2023/04/18 02:48:20;;;;;;;;;;;;;;;7.34;100.00;96688.50;5037578;28;19916;-71
2023/04/18 02:50:45;;;;;;;;;;;;;;;7.30;100.00;96689.56;5041689;28;20449;-73
2023/04/18 02:53:10;;;;;;;;;;;;;;;7.38;100.00;96688.63;5036508;28;20012;-71
2023/04/18 02:55:36;;;;;;;;;;;;;;;7.38;100.00;96683.97;5041825;28;19924;-71
2023/04/18 02:58:01;;;;;;;;;;;;;;;7.28;100.00;96681.72;5042118;28;20008;-72
2023/04/18 03:00:26;;;;;;;;;;;;;;;7.24;100.00;96683.56;5037639;28;19928;-72
2023/04/18 03:02:52;;;;;;;;;;;;;;;7.29;100.00;96680.56;5042199;28;20266;-72
2023/04/18 03:05:18;;;;;;;;;;;;;;;7.50;100.00;96685.06;5041030;28;19930;-72
2023/04/18 03:07:43;;;;;;;;;;;;;;;7.34;100.00;96676.81;5046223;28;19924;-73
2023/04/18 03:10:08;;;;;;;;;;;;;;;7.27;100.00;96669.22;5040734;28;19924;-73
2023/04/18 03:12:33;;;;;;;;;;;;;;;7.27;100.00;96674.69;5047437;28;20551;-73
2023/04/18 03:14:59;;;;;;;;;;;;;;;7.40;100.00;96669.97;5046478;28;19917;-73
2023/04/18 03:17:24;;;;;;;;;;;;;;;7.15;100.00;96661.09;5041288;28;20455;-73
2023/04/18 03:19:49;;;;;;;;;;;;;;;7.20;100.00;96663.59;5046136;28;19962;-73
2023/04/18 03:22:15;;;;;;;;;;;;;;;7.10;100.00;96653.19;5040107;28;20011;-73
2023/04/18 03:24:40;;;;;;;;;;;;;;;7.12;100.00;96656.38;5029315;28;19916;-73
2023/04/18 03:27:05;;;;;;;;;;;;;;;7.05;100.00;96655.00;5040778;28;19943;-72
2023/04/18 03:29:30;;;;;;;;;;;;;;;6.97;100.00;96652.41;5046005;28;19916;-72
2023/04/18 03:31:56;;;;;;;;;;;;;;;6.91;100.00;96654.56;5045975;28;19921;-72
2023/04/18 03:34:21;;;;;;;;;;;;;;;6.81;100.00;96663.25;5041330;28;20440;-73
2023/04/18 03:36:46;;;;;;;;;;;;;;;6.78;100.00;96656.53;5045349;28;19920;-72
2023/04/18 03:39:11;;;;;;;;;;;;;;;6.80;100.00;96661.63;5039139;28;19963;-72
2023/04/18 03:41:37;;;;;;;;;;;;;;;6.70;100.00;96654.75;5044766;28;19923;-73
2023/04/18 03:44:02;;;;;;;;;;;;;;;6.74;100.00;96655.63;5047794;28;20756;-71
2023/04/18 03:46:28;;;;;;;;;;;;;;;6.79;100.00;96660.03;5047053;28;19967;-72
2023/04/18 03:48:53;;;;;;;;;;;;;;;6.75;100.00;96662.66;5051451;28;19928;-72
2023/04/18 03:51:18;;;;;;;;;;;;;;;6.73;100.00;96658.69;5045729;28;19967;-72
2023/04/18 03:53:44;;;;;;;;;;;;;;;6.77;100.00;96656.88;5049304;28;19960;-71
2023/04/18 03:56:09;;;;;;;;;;;;;;;6.83;100.00;96659.03;5041083;28;19917;-74
2023/04/18 03:58:35;;;;;;;;;;;;;;;6.90;100.00;96650.28;5028082;28;19917;-73
2023/04/18 04:01:00;;;;;;;;;;;;;;;6.88;100.00;96649.84;5051626;28;19927;-73
2023/04/18 04:03:26;;;;;;;;;;;;;;;6.85;100.00;96650.53;5046943;28;19917;-73
2023/04/18 04:05:52;;;;;;;;;;;;;;;6.91;100.00;96657.31;5045393;28;19921;-73
2023/04/18 04:08:17;;;;;;;;;;;;;;;6.82;100.00;96654.69;5043447;28;20285;-73
2023/04/18 04:10:43;;;;;;;;;;;;;;;6.92;100.00;96656.19;5050115;28;19917;-73
2023/04/18 04:13:08;;;;;;;;;;;;;;;6.88;100.00;96649.84;5040721;28;19917;-73
2023/04/18 04:15:35;;;;;;;;;;;;;;;6.89;100.00;96646.75;5046902;28;20277;-74
2023/04/18 04:18:00;;;;;;;;;;;;;;;6.91;100.00;96651.84;5052174;28;19921;-73
2023/04/18 04:20:26;;;;;;;;;;;;;;;6.93;100.00;96655.03;5040824;28;19946;-72
2023/04/18 04:22:52;;;;;;;;;;;;;;;7.04;100.00;96647.97;5046215;28;20022;-72
2023/04/18 04:25:18;;;;;;;;;;;;;;;7.05;100.00;96648.75;5039611;28;19921;-72
2023/04/18 04:27:44;;;;;;;;;;;;;;;7.14;100.00;96646.69;5044184;28;19916;-74
2023/04/18 04:30:10;;;;;;;;;;;;;;;7.16;100.00;96652.59;5040467;28;19940;-73
2023/04/18 04:32:37;;;;;;;;;;;;;;;7.19;100.00;96651.13;5044722;28;20332;-72
2023/04/18 04:35:04;;;;;;;;;;;;;;;7.24;100.00;96645.44;5041914;28;19921;-73
2023/04/18 04:37:29;;;;;;;;;;;;;;;7.21;100.00;96646.91;5041332;28;20000;-72
2023/04/18 04:39:55;;;;;;;;;;;;;;;7.27;100.00;96650.97;5036671;28;19942;-72
2023/04/18 04:42:24;;;;;;;;;;;;;;;7.35;100.00;96645.72;5053712;28;20285;-72
2023/04/18 04:44:49;;;;;;;;;;;;;;;7.50;100.00;96658.59;5042571;28;19917;-71
2023/04/18 04:47:14;;;;;;;;;;;;;;;7.62;100.00;96655.03;5038184;28;20396;-71
2023/04/18 04:49:40;;;;;;;;;;;;;;;7.43;100.00;96653.72;5042776;28;20361;-72
2023/04/18 04:52:05;;;;;;;;;;;;;;;7.38;100.00;96653.19;5038497;28;19952;-71
2023/04/18 04:54:30;;;;;;;;;;;;;;;7.38;100.00;96656.72;5040182;28;19955;-71
2023/04/18 04:56:56;;;;;;;;;;;;;;;7.51;100.00;96660.19;5041925;28;19924;-70
2023/04/18 04:59:21;;;;;;;;;;;;;;;7.48;100.00;96663.59;5037540;28;19928;-70
2023/04/18 05:01:46;;;;;;;;;;;;;;;7.62;100.00;96664.00;5042800;28;20285;-71
2023/04/18 05:04:11;;;;;;;;;;;;;;;7.38;100.00;96661.38;5038728;28;19921;-71
2023/04/18 05:06:37;;;;;;;;;;;;;;;7.44;100.00;96668.16;5058522;28;19925;-72
2023/04/18 05:09:02;;;;;;;;;;;;;;;7.48;100.00;96663.59;5050088;28;19931;-74
2023/04/18 05:11:27;;;;;;;;;;;;;;;7.29;100.00;96658.78;5040672;28;19920;-72
2023/04/18 05:13:53;;;;;;;;;;;;;;;7.46;100.00;96657.72;5043654;28;20065;-72
2023/04/18 05:16:18;;;;;;;;;;;;;;;7.37;100.00;96665.25;5037264;28;19967;-71
2023/04/18 05:18:43;;;;;;;;;;;;;;;7.27;100.00;96667.31;5042896;28;19964;-71
2023/04/18 05:21:09;;;;;;;;;;;;;;;7.25;100.00;96657.91;5037275;28;20371;-70
2023/04/18 05:23:35;;;;;;;;;;;;;;;7.28;100.00;96671.63;5042544;28;19970;-71
2023/04/18 05:26:01;;;;;;;;;;;;;;;7.27;100.00;96672.78;5031279;28;20506;-72
2023/04/18 05:28:27;;;;;;;;;;;;;;;7.30;100.00;96667.78;5018014;28;19917;-71
2023/04/18 05:30:59;;;;;;;;;;;;;;;7.26;100.00;96676.63;5022298;28;19921;-72
2023/04/18 05:33:25;;;;;;;;;;;;;;;7.23;100.00;96671.84;5020100;28;19968;-72
2023/04/18 05:35:50;;;;;;;;;;;;;;;7.21;100.00;96676.88;5026667;28;19917;-71
2023/04/18 05:38:16;;;;;;;;;;;;;;;7.22;100.00;96677.66;5014286;28;20343;-73
2023/04/18 05:40:42;;;;;;;;;;;;;;;7.25;100.00;96675.03;5036628;28;19917;-68
2023/04/18 05:43:07;;;;;;;;;;;;;;;7.26;100.00;96671.19;5016680;28;20289;-67
2023/04/18 05:45:32;;;;;;;;;;;;;;;7.30;100.00;96678.66;5020974;28;19967;-66
2023/04/18 05:47:58;;;;;;;;;;;;;;;7.25;100.00;96675.03;5021329;28;20366;-67
2023/04/18 05:50:23;;;;;;;;;;;;;;;7.24;100.00;96672.66;5016906;28;19924;-66
2023/04/18 05:52:48;;;;;;;;;;;;;;;7.28;100.00;96681.72;5021985;28;20058;-68
2023/04/18 05:55:13;;;;;;;;;;;;;;;7.27;100.00;96678.22;5016005;28;20419;-68
2023/04/18 05:57:40;;;;;;;;;;;;;;;7.30;100.00;96687.63;5003032;28;19925;-68
2023/04/18 06:00:06;;;;;;;;;;;;;;;7.31;100.00;96693.84;5016450;28;19928;-68
2023/04/18 06:02:31;;;;;;;;;;;;;;;7.30;100.00;96686.84;5021975;28;19916;-68
2023/04/18 06:04:56;;;;;;;;;;;;;;;7.36;100.00;96683.50;5022560;28;19928;-67
2023/04/18 06:07:23;;;;;;;;;;;;;;;7.41;100.00;96683.25;5016965;28;20204;-66
2023/04/18 06:09:49;;;;;;;;;;;;;;;7.37;100.00;96685.09;5021969;28;19917;-68
2023/04/18 06:12:14;;;;;;;;;;;;;;;7.43;100.00;96688.38;5016008;28;20011;-68
2023/04/18 06:14:39;;;;;;;;;;;;;;;7.45;100.00;96686.09;5021864;28;19956;-69
2023/04/18 06:17:06;;;;;;;;;;;;;;;7.52;100.00;96693.69;5017289;28;19917;-71
2023/04/18 06:19:31;;;;;;;;;;;;;;;7.53;100.00;96687.09;5024507;28;19974;-69
2023/04/18 06:21:56;;;;;;;;;;;;;;;7.66;100.00;96694.88;5025208;28;20409;-68
2023/04/18 06:24:22;;;;;;;;;;;;;;;7.64;100.00;96690.91;5018940;28;19933;-67
2023/04/18 06:26:47;;;;;;;;;;;;;;;7.71;100.00;96691.09;5021607;28;20039;-68
2023/04/18 06:29:13;;;;;;;;;;;;;;;7.71;100.00;96690.31;5017607;28;19959;-65
2023/04/18 06:31:38;;;;;;;;;;;;;;;7.77;100.00;96689.69;5021150;28;20021;-67
2023/04/18 06:34:04;;;;;;;;;;;;;;;7.88;100.00;96690.00;5000094;28;20015;-71
2023/04/18 06:36:30;;;;;;;;;;;;;;;7.91;100.00;96691.25;5020746;28;20361;-68
2023/04/18 06:38:55;;;;;;;;;;;;;;;8.01;100.00;96687.97;5024585;28;19924;-68
2023/04/18 06:41:21;;;;;;;;;;;;;;;8.17;100.00;96688.00;5020485;28;20744;-67
2023/04/18 06:43:46;;;;;;;;;;;;;;;8.10;100.00;96685.88;5025096;28;20292;-68
2023/04/18 06:46:12;;;;;;;;;;;;;;;8.35;100.00;96686.50;5019679;28;20423;-68
2023/04/18 06:48:37;;;;;;;;;;;;;;;8.50;100.00;96689.63;5024201;28;19982;-67
2023/04/18 06:51:02;;;;;;;;;;;;;;;8.29;100.00;96681.69;5019505;28;19943;-72
2023/04/18 06:53:28;;;;;;;;;;;;;;;8.21;100.00;96691.59;5022484;28;19928;-67
2023/04/18 06:55:53;;;;;;;;;;;;;;;8.20;100.00;96692.78;5024698;28;19983;-67
2023/04/18 06:58:19;;;;;;;;;;;;;;;8.26;100.00;96691.34;5019240;28;19924;-68
2023/04/18 07:00:47;;;;;;;;;;;;;;;8.41;100.00;96690.56;5023851;28;19975;-69
2023/04/18 07:03:13;;;;;;;;;;;;;;;8.52;100.00;96692.81;5019352;28;19925;-67
2023/04/18 07:05:38;;;;;;;;;;;;;;;8.45;100.00;96687.97;5024242;28;19967;-66
2023/04/18 07:08:03;;;;;;;;;;;;;;;8.52;100.00;96690.88;5021520;28;19921;-73
2023/04/18 07:10:29;;;;;;;;;;;;;;;8.57;100.00;96697.97;5025992;28;19999;-71
2023/04/18 07:12:54;;;;;;;;;;;;;;;8.63;100.00;96696.59;5025534;28;19929;-69
2023/04/18 07:15:20;;;;;;;;;;;;;;;8.91;100.00;96695.66;5019592;28;19921;-67
2023/04/18 07:17:45;;;;;;;;;;;;;;;8.93;100.00;96691.44;5024585;28;19921;-67
2023/04/18 07:20:10;;;;;;;;;;;;;;;8.98;100.00;96699.34;5019940;28;19924;-66
2023/04/18 07:22:36;;;;;;;;;;;;;;;8.76;100.00;96692.59;5025723;28;19928;-67
2023/04/18 07:25:01;;;;;;;;;;;;;;;8.77;100.00;96693.41;5025288;28;19917;-71
2023/04/18 07:27:27;;;;;;;;;;;;;;;8.63;100.00;96701.25;5023570;28;19960;-67
2023/04/18 07:29:52;;;;;;;;;;;;;;;8.74;100.00;96707.75;5008156;28;20387;-68
2023/04/18 07:32:17;;;;;;;;;;;;;;;8.77;100.00;96704.31;5021204;28;19921;-68
2023/04/18 07:34:43;;;;;;;;;;;;;;;9.10;100.00;96703.88;5006267;28;20393;-68
2023/04/18 07:37:09;;;;;;;;;;;;;;;9.51;100.00;96704.38;5020656;28;19952;-67
2023/04/18 07:39:35;;;;;;;;;;;;;;;9.23;100.00;96703.78;5030229;28;19923;-68
2023/04/18 07:42:01;;;;;;;;;;;;;;;8.82;100.00;96704.03;5025704;28;20715;-66
2023/04/18 07:44:26;;;;;;;;;;;;;;;9.02;100.00;96715.00;5022119;28;19925;-70
2023/04/18 07:46:52;;;;;;;;;;;;;;;9.21;100.00;96709.59;5024403;28;19921;-67
2023/04/18 07:49:17;;;;;;;;;;;;;;;9.10;100.00;96706.63;5018921;28;19982;-68
2023/04/18 07:51:42;;;;;;;;;;;;;;;9.08;100.00;96708.94;5038435;28;19917;-68
2023/04/18 07:54:09;;;;;;;;;;;;;;;9.40;100.00;96708.84;5019188;28;20358;-68
2023/04/18 07:56:35;;;;;;;;;;;;;;;9.65;100.00;96712.09;5023775;28;20293;-68
2023/04/18 07:59:01;;;;;;;;;;;;;;;9.26;100.00;96714.78;5024693;28;19921;-68
2023/04/18 08:01:26;;;;;;;;;;;;;;;9.68;100.00;96716.03;5018812;28;19925;-66
2023/04/18 08:03:53;;;;;;;;;;;;;;;9.53;100.00;96718.47;5023494;28;19917;-68
2023/04/18 08:06:19;;;;;;;;;;;;;;;9.29;100.00;96719.53;5019067;28;19921;-66
2023/04/18 08:08:45;;;;;;;;;;;;;;;9.06;100.00;96713.19;5025262;28;19924;-67
2023/04/18 08:11:10;;;;;;;;;;;;;;;9.46;100.00;96725.75;5020591;28;19917;-66
2023/04/18 08:13:35;;;;;;;;;;;;;;;9.29;100.00;96725.00;5005925;28;20020;-66
2023/04/18 08:16:01;;;;;;;;;;;;;;;9.29;100.00;96705.06;5023968;28;19917;-68
2023/04/18 08:18:27;;;;;;;;;;;;;;;9.54;100.00;96719.25;5019032;28;19965;-67
2023/04/18 08:20:52;;;;;;;;;;;;;;;9.34;100.00;96726.66;5023505;28;19921;-68
2023/04/18 08:23:17;;;;;;;;;;;;;;;9.73;100.00;96718.47;5020167;28;19951;-67
2023/04/18 08:25:43;;;;;;;;;;;;;;;10.12;100.00;96721.19;5023945;28;20619;-68
2023/04/18 08:28:08;;;;;;;;;;;;;;;9.30;100.00;96726.56;5018877;28;19921;-66
2023/04/18 08:30:33;;;;;;;;;;;;;;;9.80;100.00;96724.09;5023005;28;19924;-67
2023/04/18 08:32:59;;;;;;;;;;;;;;;9.61;100.00;96721.34;5024572;28;19929;-69
2023/04/18 08:35:25;;;;;;;;;;;;;;;9.60;100.00;96738.91;5025543;28;19917;-68
2023/04/18 08:37:50;;;;;;;;;;;;;;;9.42;100.00;96727.59;5025140;28;19917;-67
2023/04/18 08:40:15;;;;;;;;;;;;;;;9.73;100.00;96732.94;5017895;28;19917;-68
2023/04/18 08:42:42;;;;;;;;;;;;;;;9.70;100.00;96738.34;5023395;28;19963;-67
2023/04/18 08:45:08;;;;;;;;;;;;;;;9.53;100.00;96737.63;5019223;28;19925;-68
2023/04/18 08:47:34;;;;;;;;;;;;;;;10.00;100.00;96743.22;5022460;28;19917;-68
2023/04/18 08:49:59;;;;;;;;;;;;;;;9.87;100.00;96737.13;5022965;28;19924;-68
2023/04/18 08:52:25;;;;;;;;;;;;;;;9.85;100.00;96742.13;5017770;28;19967;-68
2023/04/18 08:54:51;;;;;;;;;;;;;;;9.53;100.00;96743.09;5025721;28;20071;-68
2023/04/18 08:57:22;;;;;;;;;;;;;;;9.65;100.00;96755.03;5022121;28;20159;-67
2023/04/18 08:59:49;;;;;;;;;;;;;;;9.74;100.00;96744.66;5025203;28;19917;-67
2023/04/18 09:02:14;;;;;;;;;;;;;;;9.79;100.00;96758.06;5019786;28;19921;-68
2023/04/18 09:04:43;;;;;;;;;;;;;;;9.83;100.00;96752.66;5023697;28;19924;-68
2023/04/18 09:07:10;;;;;;;;;;;;;;;9.62;100.00;96748.34;5017089;28;20361;-66
2023/04/18 09:09:39;;;;;;;;;;;;;;;9.21;100.00;96747.06;5023039;28;19917;-67
2023/04/18 09:12:06;;;;;;;;;;;;;;;9.50;100.00;96746.53;5017980;28;20011;-72
2023/04/18 09:14:31;;;;;;;;;;;;;;;9.67;100.00;96745.31;5022029;28;19921;-67
2023/04/18 09:16:57;;;;;;;;;;;;;;;9.73;100.00;96745.81;5021046;28;19924;-68
2023/04/18 09:19:22;;;;;;;;;;;;;;;9.97;100.00;96750.19;5016164;28;19975;-68
2023/04/18 09:21:55;;;;;;;;;;;;;;;10.24;100.00;96742.88;5021959;28;19991;-68
2023/04/18 09:24:23;;;;;;;;;;;;;;;10.24;100.00;96748.38;5000291;28;19923;-69
2023/04/18 09:26:49;;;;;;;;;;;;;;;11.02;99.56;96742.66;5021922;28;19921;-67
2023/04/18 09:29:17;;;;;;;;;;;;;;;11.51;95.71;96738.25;5017682;28;19923;-67
2023/04/18 09:31:52;;;;;;;;;;;;;;;11.07;95.98;96741.53;5022681;28;19921;-67
2023/04/18 09:34:23;;;;;;;;;;;;;;;11.35;94.80;96745.88;5016837;28;19925;-69
2023/04/18 09:37:04;;;;;;;;;;;;;;;11.06;94.80;96749.00;5022252;28;19963;-65
2023/04/18 09:39:29;;;;;;;;;;;;;;;11.74;88.72;96740.09;5003054;28;19917;-68
2023/04/18 09:41:58;;;;;;;;;;;;;;;12.33;86.98;96740.41;5021780;28;19928;-67
2023/04/18 09:44:23;;;;;;;;;;;;;;;13.78;79.51;96749.34;5018037;28;19925;-69
2023/04/18 09:46:49;;;;;;;;;;;;;;;12.04;86.86;96748.34;5021681;28;19952;-66
2023/04/18 09:49:15;;;;;;;;;;;;;;;12.63;85.31;96749.31;5016960;28;19948;-66
2023/04/18 09:51:41;;;;;;;;;;;;;;;11.96;85.25;96738.47;5022311;28;19917;-67
2023/04/18 09:54:09;;;;;;;;;;;;;;;11.24;88.97;96732.81;5023716;28;19921;-66
2023/04/18 09:56:36;;;;;;;;;;;;;;;11.91;88.35;96731.34;5025144;28;19936;-67
2023/04/18 09:59:08;;;;;;;;;;;;;;;13.10;81.35;96722.22;5023383;28;19917;-66
2023/04/18 10:01:34;;;;;;;;;;;;;;;13.80;77.25;96732.47;5038660;28;20301;-68
2023/04/18 10:04:02;;;;;;;;;;;;;;;13.12;79.15;96735.59;5021877;28;19928;-66
2023/04/18 10:06:27;;;;;;;;;;;;;;;12.18;80.37;96733.97;5016957;28;19929;-68
2023/04/18 10:08:53;;;;;;;;;;;;;;;13.11;80.12;96728.53;5022710;28;19918;-69
2023/04/18 10:11:19;;;;;;;;;;;;;;;13.38;82.09;96742.88;5016146;28;19921;-71
2023/04/18 10:13:46;;;;;;;;;;;;;;;13.55;77.73;96749.63;5021622;28;20012;-70
2023/04/18 10:16:13;;;;;;;;;;;;;;;13.36;77.87;96739.69;5015296;28;19963;-70
2023/04/18 10:18:38;;;;;;;;;;;;;;;13.59;79.04;96744.94;5015360;28;20365;-68
2023/04/18 10:21:03;;;;;;;;;;;;;;;12.87;78.15;96735.41;5017276;28;20069;-68
2023/04/18 10:23:35;;;;;;;;;;;;;;;12.88;77.85;96735.03;5020599;28;19932;-68
2023/04/18 10:26:04;;;;;;;;;;;;;;;13.12;74.53;96741.06;5021590;28;19975;-68
2023/04/18 10:28:50;;;;;;;;;;;;;;;13.96;78.92;96735.66;5020490;28;20012;-68
2023/04/18 10:31:15;;;;;;;;;;;;;;;12.72;82.35;96729.00;5015568;28;19921;-70
2023/04/18 10:33:45;;;;;;;;;;;;;;;13.62;77.82;96743.38;5020715;28;20008;-68
2023/04/18 10:36:11;;;;;;;;;;;;;;;13.87;75.56;96746.25;5016051;28;19921;-68
2023/04/18 10:38:43;;;;;;;;;;;;;;;14.02;71.63;96738.81;5020898;28;19921;-69
2023/04/18 10:41:16;;;;;;;;;;;;;;;13.72;72.49;96737.13;5016113;28;19917;-68
2023/04/18 10:44:00;;;;;;;;;;;;;;;13.36;75.21;96735.00;5021429;28;19921;-68
2023/04/18 10:46:25;;;;;;;;;;;;;;;13.93;73.11;96741.94;5016366;28;20377;-68
2023/04/18 10:49:09;;;;;;;;;;;;;;;14.02;70.88;96747.09;5022163;28;19932;-69
2023/04/18 10:51:34;;;;;;;;;;;;;;;12.86;73.57;96733.84;5035763;28;19964;-69
2023/04/18 10:54:00;;;;;;;;;;;;;;;13.73;71.88;96728.47;5037902;28;19920;-69
2023/04/18 10:56:26;;;;;;;;;;;;;;;13.55;73.55;96730.38;4998989;28;20288;-69
2023/04/18 10:58:52;;;;;;;;;;;;;;;14.86;67.26;96731.13;5021303;28;20012;-67
2023/04/18 11:01:25;;;;;;;;;;;;;;;14.67;66.71;96737.03;5016042;28;20409;-68
2023/04/18 11:03:51;;;;;;;;;;;;;;;14.17;70.41;96737.72;5020282;28;19917;-70
2023/04/18 11:06:17;;;;;;;;;;;;;;;14.67;67.14;96737.78;5016543;28;20370;-69
2023/04/18 11:08:42;;;;;;;;;;;;;;;14.05;68.92;96736.09;5020200;28;20007;-69
2023/04/18 11:11:10;;;;;;;;;;;;;;;13.55;71.21;96735.88;5016384;28;19917;-69
2023/04/18 11:13:35;;;;;;;;;;;;;;;13.15;72.94;96721.84;5021096;28;20031;-68
2023/04/18 11:16:01;;;;;;;;;;;;;;;13.58;71.51;96722.13;5020101;28;19917;-70
2023/04/18 11:18:37;;;;;;;;;;;;;;;13.20;71.84;96717.97;5016630;28;20012;-69
2023/04/18 11:21:03;;;;;;;;;;;;;;;12.99;73.25;96718.59;5018417;28;19921;-70
2023/04/18 11:23:28;;;;;;;;;;;;;;;13.54;71.64;96715.81;5033671;28;19970;-69
2023/04/18 11:25:55;;;;;;;;;;;;;;;14.87;68.89;96718.13;5004875;28;20337;-69
2023/04/18 11:28:21;;;;;;;;;;;;;;;14.20;67.31;96719.59;5020232;28;19924;-69
2023/04/18 11:30:46;;;;;;;;;;;;;;;14.61;66.83;96722.84;5024644;28;19925;-69
2023/04/18 11:33:13;;;;;;;;;;;;;;;14.10;66.21;96719.19;5020513;28;20404;-69
2023/04/18 11:35:45;;;;;;;;;;;;;;;13.18;69.92;96712.03;5026448;28;20427;-69
2023/04/18 11:38:11;;;;;;;;;;;;;;;13.60;68.84;96720.97;5022063;28;19917;-68
2023/04/18 11:40:37;;;;;;;;;;;;;;;13.67;70.00;96708.03;5025916;28;19943;-70
2023/04/18 11:43:03;;;;;;;;;;;;;;;15.04;66.48;96711.03;5023764;28;20362;-71
2023/04/18 11:45:29;;;;;;;;;;;;;;;14.41;64.44;96716.88;5023200;28;20419;-70
2023/04/18 11:47:55;;;;;;;;;;;;;;;14.02;68.06;96714.81;5023443;28;19921;-69
2023/04/18 11:50:21;;;;;;;;;;;;;;;13.88;66.69;96714.78;5019170;28;20055;-69
2023/04/18 11:52:49;;;;;;;;;;;;;;;13.63;69.59;96706.41;5024125;28;19928;-69
2023/04/18 11:55:20;;;;;;;;;;;;;;;13.63;68.61;96701.72;5018480;28;20007;-69
2023/04/18 11:57:58;;;;;;;;;;;;;;;14.01;66.95;96715.22;5024041;28;19928;-68
2023/04/18 12:00:31;;;;;;;;;;;;;;;13.86;67.21;96714.38;5018307;28;20013;-68
2023/04/18 12:02:58;;;;;;;;;;;;;;;14.25;66.92;96721.97;5025929;28;20008;-69
2023/04/18 12:05:27;;;;;;;;;;;;;;;14.21;65.63;96716.47;5020198;28;19960;-68
2023/04/18 12:07:53;;;;;;;;;;;;;;;14.21;67.66;96710.16;5024208;28;19924;-68
2023/04/18 12:10:18;;;;;;;;;;;;;;;15.05;65.68;96713.41;5019397;28;19917;-69
2023/04/18 12:12:47;;;;;;;;;;;;;;;15.03;62.54;96715.75;5023972;28;19924;-70
2023/04/18 12:15:13;;;;;;;;;;;;;;;14.50;63.34;96717.28;5017535;28;19925;-69
2023/04/18 12:17:38;;;;;;;;;;;;;;;14.26;65.19;96712.53;5023174;28;20304;-69
2023/04/18 12:20:04;;;;;;;;;;;;;;;13.95;63.64;96714.81;5020263;28;19967;-71
2023/04/18 12:22:37;;;;;;;;;;;;;;;14.56;63.22;96712.16;5023132;28;19920;-68
2023/04/18 12:25:11;;;;;;;;;;;;;;;14.39;64.58;96712.97;5022473;28;20369;-71
2023/04/18 12:27:46;;;;;;;;;;;;;;;14.58;64.64;96704.31;5023299;28;19978;-69
2023/04/18 12:30:12;;;;;;;;;;;;;;;15.14;65.32;96706.66;5019206;28;19928;-68
2023/04/18 12:32:37;;;;;;;;;;;;;;;14.23;63.50;96711.34;5023765;28;20561;-69
2023/04/18 12:35:02;;;;;;;;;;;;;;;14.31;64.24;96715.69;5020936;28;19962;-72
2023/04/18 12:37:28;;;;;;;;;;;;;;;14.88;62.75;96706.69;5003014;28;19917;-69
2023/04/18 12:39:53;;;;;;;;;;;;;;;15.14;60.72;96703.91;5023890;28;19924;-69